createdAt,value
2023-03-11T00:03:07.055Z,78.42
2023-03-11T00:07:01.075Z,78.58
2023-03-11T00:10:29.411Z,78.39
2023-03-11T00:13:57.655Z,78.65
2023-03-11T00:17:55.235Z,78.91
2023-03-11T00:21:19.001Z,79.15
2023-03-11T00:25:11.871Z,79.24
2023-03-11T00:28:28.327Z,79.28
2023-03-11T00:32:06.155Z,79.18
2023-03-11T00:36:03.275Z,78.99
2023-03-11T00:39:40.431Z,78.64
2023-03-11T00:43:00.797Z,78.71
2023-03-11T00:46:36.892Z,79.16
2023-03-11T00:50:40.169Z,78.73
2023-03-11T00:53:52.211Z,78.49
2023-03-11T00:57:29.733Z,78.37
2023-03-11T01:01:26.867Z,78.50
2023-03-11T01:05:07.344Z,79.07
2023-03-11T01:08:43.488Z,79.88
2023-03-11T01:12:00.381Z,80.67
2023-03-11T01:15:38.384Z,81.11
2023-03-11T01:19:16.556Z,80.50
2023-03-11T01:22:55.051Z,80.21
2023-03-11T01:26:31.429Z,80.32
2023-03-11T01:30:28.901Z,80.08
2023-03-11T01:33:46.582Z,80.14
2023-03-11T01:37:24.560Z,79.94
2023-03-11T01:41:20.808Z,80.25
2023-03-11T01:44:41.808Z,80.52
2023-03-11T01:48:42.180Z,80.81
2023-03-11T01:52:15.836Z,80.57
2023-03-11T01:55:35.674Z,80.56
2023-03-11T01:59:15.775Z,80.76
2023-03-11T02:02:55.619Z,80.64
2023-03-11T02:06:44.925Z,81.20
2023-03-11T02:10:22.508Z,81.73
2023-03-11T02:13:43.629Z,82.27
2023-03-11T02:17:40.155Z,82.05
2023-03-11T02:21:18.402Z,81.78
2023-03-11T02:25:25.262Z,81.61
2023-03-11T02:28:31.204Z,81.50
2023-03-11T02:32:09.899Z,81.74
2023-03-11T02:35:45.026Z,82.02
2023-03-11T02:39:43.921Z,82.12
2023-03-11T02:43:24.940Z,82.24
2023-03-11T02:46:41.433Z,82.09
2023-03-11T02:50:36.676Z,81.96
2023-03-11T02:54:12.208Z,81.72
2023-03-11T02:57:50.405Z,82.26
2023-03-11T03:01:08.665Z,82.61
2023-03-11T03:05:06.215Z,83.15
2023-03-11T03:08:43.056Z,83.23
2023-03-11T03:12:02.698Z,83.36
2023-03-11T03:15:39.429Z,83.30
2023-03-11T03:19:17.195Z,83.54
2023-03-11T03:22:55.176Z,83.82
2023-03-11T03:26:32.719Z,83.75
2023-03-11T03:30:11.153Z,83.90
2023-03-11T03:34:07.567Z,84.01
2023-03-11T03:37:27.286Z,84.04
2023-03-11T03:41:03.515Z,83.95
2023-03-11T03:44:40.834Z,83.72
2023-03-11T03:48:18.644Z,83.59
2023-03-11T03:51:56.409Z,83.64
2023-03-11T03:55:33.983Z,83.95
2023-03-11T03:59:11.557Z,84.13
2023-03-11T04:02:49.417Z,83.96
2023-03-11T04:06:46.052Z,84.00
2023-03-11T04:10:05.281Z,83.92
2023-03-11T04:13:44.668Z,83.65
2023-03-11T04:17:39.017Z,83.40
2023-03-11T04:20:57.676Z,83.53
2023-03-11T04:24:35.442Z,83.77
2023-03-11T04:28:13.346Z,83.90
2023-03-11T04:31:50.661Z,84.13
2023-03-11T04:35:28.476Z,84.08
2023-03-11T04:39:06.509Z,83.94
2023-03-11T04:42:43.867Z,83.84
2023-03-11T04:46:21.802Z,83.58
2023-03-11T04:50:18.729Z,83.84
2023-03-11T04:53:37.096Z,84.07
2023-03-11T04:57:14.636Z,84.54
2023-03-11T05:00:53.081Z,84.61
2023-03-11T05:04:29.892Z,84.83
2023-03-11T05:08:07.805Z,84.83
2023-03-11T05:12:05.082Z,84.78
2023-03-11T05:15:23.217Z,85.20
2023-03-11T05:19:00.565Z,85.44
2023-03-11T05:22:39.002Z,85.59
2023-03-11T05:27:21.619Z,86.04
2023-03-11T05:30:27.997Z,86.11
2023-03-11T05:34:24.447Z,86.01
2023-03-11T05:38:02.372Z,85.97
2023-03-11T05:41:21.101Z,85.97
2023-03-11T05:44:58.792Z,86.28
2023-03-11T05:48:36.427Z,86.57
2023-03-11T05:52:14.424Z,86.69
2023-03-11T05:55:58.981Z,86.63
2023-03-11T05:59:32.441Z,86.43
2023-03-11T06:03:07.090Z,86.60
2023-03-11T06:06:44.940Z,86.65
2023-03-11T06:10:22.432Z,86.72
2023-03-11T06:14:00.326Z,86.94
2023-03-11T06:17:37.880Z,87.09
2023-03-11T06:21:35.278Z,87.27
2023-03-11T06:24:53.208Z,87.41
2023-03-11T06:28:31.756Z,87.85
2023-03-11T06:32:08.546Z,88.11
2023-03-11T06:35:56.861Z,88.03
2023-03-11T06:39:23.903Z,88.39
2023-03-11T06:43:01.768Z,88.16
2023-03-11T06:46:40.332Z,88.03
2023-03-11T06:50:17.525Z,88.18
2023-03-11T06:54:13.578Z,88.30
2023-03-11T06:57:51.375Z,88.54
2023-03-11T07:01:28.969Z,88.31
2023-03-11T07:05:07.027Z,88.35
2023-03-11T07:08:47.304Z,88.27
2023-03-11T07:12:04.805Z,88.26
2023-03-11T07:16:27.403Z,88.45
2023-03-11T07:19:33.993Z,88.40
2023-03-11T07:23:11.650Z,88.01
2023-03-11T07:26:49.645Z,87.77
2023-03-11T07:30:47.898Z,87.46
2023-03-11T07:34:11.478Z,87.31
2023-03-11T07:37:42.366Z,87.41
2023-03-11T07:41:39.254Z,87.44
2023-03-11T07:45:16.870Z,87.29
2023-03-11T07:48:55.571Z,86.95
2023-03-11T07:52:13.371Z,86.80
2023-03-11T07:55:56.436Z,86.76
2023-03-11T07:59:29.193Z,86.86
2023-03-11T08:03:08.922Z,86.87
2023-03-11T08:06:46.893Z,87.01
2023-03-11T08:10:21.800Z,86.76
2023-03-11T08:13:59.817Z,86.70
2023-03-11T08:17:57.254Z,86.83
2023-03-11T08:21:17.949Z,86.84
2023-03-11T08:24:56.729Z,87.07
2023-03-11T08:28:30.067Z,87.12
2023-03-11T08:32:07.980Z,87.22
2023-03-11T08:36:08.638Z,87.11
2023-03-11T08:39:42.145Z,87.27
2023-03-11T08:43:02.185Z,87.42
2023-03-11T08:46:39.403Z,87.37
2023-03-11T08:50:52.968Z,87.07
2023-03-11T08:53:57.446Z,86.98
2023-03-11T08:57:35.033Z,87.20
2023-03-11T09:01:31.703Z,87.46
2023-03-11T09:04:53.392Z,87.48
2023-03-11T09:08:28.386Z,88.43
2023-03-11T09:12:27.196Z,88.91
2023-03-11T09:16:05.272Z,89.10
2023-03-11T09:19:40.074Z,89.31
2023-03-11T09:23:21.647Z,89.48
2023-03-11T09:26:55.640Z,88.93
2023-03-11T09:30:15.110Z,88.26
2023-03-11T09:33:52.876Z,88.02
2023-03-11T09:37:32.005Z,88.27
2023-03-11T09:41:33.063Z,88.25
2023-03-11T09:44:53.997Z,88.50
2023-03-11T09:48:53.540Z,88.52
2023-03-11T09:52:19.240Z,88.57
2023-03-11T09:55:49.348Z,88.76
2023-03-11T09:59:22.361Z,88.80
2023-03-11T10:02:53.487Z,88.96
2023-03-11T10:06:51.054Z,88.87
2023-03-11T10:10:14.847Z,89.11
2023-03-11T10:14:14.183Z,89.09
2023-03-11T10:17:26.729Z,89.62
2023-03-11T10:21:27.765Z,89.52
2023-03-11T10:25:04.622Z,89.49
2023-03-11T10:28:20.806Z,89.82
2023-03-11T10:32:41.257Z,89.85
2023-03-11T10:35:47.167Z,89.99
2023-03-11T10:39:40.996Z,90.04
2023-03-11T10:43:04.020Z,90.23
2023-03-11T10:47:01.834Z,90.10
2023-03-11T10:50:21.139Z,90.50
2023-03-11T10:53:55.430Z,90.60
2023-03-11T10:57:47.264Z,90.83
2023-03-11T11:01:18.663Z,90.84
2023-03-11T11:04:45.300Z,91.48
2023-03-11T11:08:41.622Z,91.88
2023-03-11T11:12:20.398Z,91.68
2023-03-11T11:15:41.717Z,91.86
2023-03-11T11:19:16.420Z,91.97
2023-03-11T11:22:56.416Z,91.76
2023-03-11T11:26:31.296Z,91.91
2023-03-11T11:30:30.288Z,91.89
2023-03-11T11:34:31.103Z,91.86
2023-03-11T11:37:36.875Z,92.02
2023-03-11T11:41:21.414Z,92.04
2023-03-11T11:45:28.494Z,92.12
2023-03-11T11:48:47.288Z,91.77
2023-03-11T11:52:20.354Z,91.90
2023-03-11T11:56:05.993Z,91.89
2023-03-11T11:59:44.244Z,91.95
2023-03-11T12:03:38.298Z,91.91
2023-03-11T12:07:29.293Z,91.92
2023-03-11T12:10:52.260Z,92.08
2023-03-11T12:14:21.768Z,92.08
2023-03-11T12:18:18.662Z,91.70
2023-03-11T12:21:37.071Z,91.26
2023-03-11T12:25:22.415Z,90.99
2023-03-11T12:28:43.379Z,90.61
2023-03-11T12:32:43.716Z,91.10
2023-03-11T12:36:03.953Z,91.18
2023-03-11T12:39:52.214Z,91.16
2023-03-11T12:43:35.727Z,91.17
2023-03-11T12:47:12.203Z,91.16
2023-03-11T12:50:46.482Z,91.21
2023-03-11T12:54:42.943Z,91.09
2023-03-11T12:57:55.185Z,90.98
2023-03-11T13:01:47.988Z,91.22
2023-03-11T13:05:17.471Z,91.34
2023-03-11T13:08:54.839Z,91.27
2023-03-11T13:12:47.945Z,91.43
2023-03-11T13:16:19.084Z,91.82
2023-03-11T13:19:37.393Z,91.89
2023-03-11T13:23:38.354Z,91.63
2023-03-11T13:27:27.039Z,91.78
2023-03-11T13:31:03.868Z,91.04
2023-03-11T13:34:23.553Z,90.23
2023-03-11T13:38:20.792Z,89.26
2023-03-11T13:41:33.125Z,88.94
2023-03-11T13:45:36.661Z,88.90
2023-03-11T13:49:23.197Z,88.89
2023-03-11T13:52:30.606Z,88.42
2023-03-11T13:56:04.550Z,88.28
2023-03-11T13:59:43.166Z,88.44
2023-03-11T14:03:25.000Z,88.40
2023-03-11T14:06:56.979Z,88.71
2023-03-11T14:11:20.456Z,88.52
2023-03-11T14:14:53.207Z,89.05
2023-03-11T14:18:33.876Z,89.03
2023-03-11T14:21:42.908Z,89.46
2023-03-11T14:25:24.131Z,90.01
2023-03-11T14:28:59.066Z,90.21
2023-03-11T14:32:36.312Z,90.54
2023-03-11T14:36:14.426Z,90.37
2023-03-11T14:39:49.261Z,90.53
2023-03-11T14:43:49.472Z,90.83
2023-03-11T14:47:33.754Z,90.89
2023-03-11T14:50:40.560Z,91.02
2023-03-11T14:54:27.890Z,91.20
2023-03-11T14:57:57.133Z,91.10
2023-03-11T15:02:00.306Z,91.14
2023-03-11T15:05:42.369Z,90.95
2023-03-11T15:09:14.233Z,90.78
2023-03-11T15:12:45.309Z,90.85
2023-03-11T15:16:30.866Z,91.03
2023-03-11T15:19:41.926Z,91.28
2023-03-11T15:23:38.365Z,91.44
2023-03-11T15:27:02.629Z,91.28
2023-03-11T15:30:34.641Z,91.09
2023-03-11T15:34:25.523Z,91.45
2023-03-11T15:38:12.082Z,91.04
2023-03-11T15:41:59.614Z,90.83
2023-03-11T15:45:16.404Z,90.71
2023-03-11T15:48:44.379Z,90.81
2023-03-11T15:52:39.697Z,90.92
2023-03-11T15:56:23.667Z,90.94
2023-03-11T15:59:37.279Z,90.96
2023-03-11T16:03:13.712Z,90.87
2023-03-11T16:07:02.966Z,90.89
2023-03-11T16:10:29.240Z,90.83
2023-03-11T16:14:10.003Z,90.73
2023-03-11T16:18:06.972Z,90.49
2023-03-11T16:21:49.531Z,90.33
2023-03-11T16:25:28.845Z,90.34
2023-03-11T16:28:38.427Z,90.18
2023-03-11T16:32:34.429Z,89.99
2023-03-11T16:35:53.055Z,89.77
2023-03-11T16:39:33.227Z,89.70
2023-03-11T16:43:11.024Z,89.90
2023-03-11T16:46:46.709Z,90.17
2023-03-11T16:50:27.853Z,90.28
2023-03-11T16:54:02.869Z,90.37
2023-03-11T16:57:43.008Z,90.35
2023-03-11T17:01:37.842Z,90.48
2023-03-11T17:04:54.376Z,90.44
2023-03-11T17:08:53.680Z,90.51
2023-03-11T17:12:15.416Z,90.51
2023-03-11T17:16:06.783Z,90.32
2023-03-11T17:19:31.272Z,90.02
2023-03-11T17:23:03.093Z,89.95
2023-03-11T17:26:40.593Z,89.92
2023-03-11T17:30:46.346Z,89.90
2023-03-11T17:33:57.311Z,89.80
2023-03-11T17:37:34.669Z,89.53
2023-03-11T17:41:30.172Z,89.34
2023-03-11T17:44:52.041Z,89.23
2023-03-11T17:48:28.150Z,88.95
2023-03-11T17:52:04.650Z,88.86
2023-03-11T17:56:00.661Z,88.63
2023-03-11T17:59:24.964Z,88.40
2023-03-11T18:02:58.292Z,88.44
2023-03-11T18:06:40.246Z,88.07
2023-03-11T18:10:32.060Z,87.98
2023-03-11T18:13:51.393Z,87.81
2023-03-11T18:17:29.408Z,87.67
2023-03-11T18:21:13.478Z,87.55
2023-03-11T18:24:43.482Z,87.64
2023-03-11T18:28:21.246Z,87.57
2023-03-11T18:32:20.016Z,87.36
2023-03-11T18:35:36.750Z,87.33
2023-03-11T18:39:14.153Z,87.20
2023-03-11T18:42:53.090Z,87.12
2023-03-11T18:46:54.284Z,86.94
2023-03-11T18:50:27.912Z,86.69
2023-03-11T18:54:05.204Z,86.61
2023-03-11T18:57:27.387Z,86.87
2023-03-11T19:01:15.714Z,86.87
2023-03-11T19:04:38.383Z,86.77
2023-03-11T19:08:34.740Z,86.67
2023-03-11T19:11:53.496Z,86.46
2023-03-11T19:15:32.876Z,86.36
2023-03-11T19:19:11.809Z,86.29
2023-03-11T19:22:46.313Z,86.13
2023-03-11T19:26:45.996Z,86.25
2023-03-11T19:30:02.240Z,86.39
2023-03-11T19:33:59.134Z,86.63
2023-03-11T19:37:17.424Z,86.72
2023-03-11T19:41:01.225Z,86.65
2023-03-11T19:44:51.713Z,86.34
2023-03-11T19:48:29.545Z,86.19
2023-03-11T19:51:50.335Z,86.26
2023-03-11T19:55:25.709Z,86.25
2023-03-11T19:59:03.665Z,86.40
2023-03-11T20:02:41.194Z,86.70
2023-03-11T20:06:22.487Z,86.77
2023-03-11T20:09:56.334Z,86.85
2023-03-11T20:13:35.760Z,86.89
2023-03-11T20:17:11.979Z,86.74
2023-03-11T20:20:51.372Z,86.83
2023-03-11T20:24:28.407Z,87.09
2023-03-11T20:28:04.686Z,86.98
2023-03-11T20:32:03.439Z,86.73
2023-03-11T20:35:21.181Z,86.77
2023-03-11T20:39:04.439Z,86.66
2023-03-11T20:42:35.724Z,86.89
2023-03-11T20:46:13.470Z,86.97
2023-03-11T20:49:52.292Z,87.17
2023-03-11T20:53:30.651Z,87.23
2023-03-11T20:57:24.879Z,86.99
2023-03-11T21:00:43.950Z,86.89
2023-03-11T21:04:24.232Z,86.92
2023-03-11T21:08:18.098Z,86.68
2023-03-11T21:11:37.004Z,86.75
2023-03-11T21:15:35.323Z,86.79
2023-03-11T21:18:54.585Z,86.88
2023-03-11T21:22:29.835Z,86.97
2023-03-11T21:26:08.650Z,86.90
2023-03-11T21:29:45.295Z,86.60
2023-03-11T21:33:23.152Z,86.58
2023-03-11T21:37:00.904Z,86.53
2023-03-11T21:41:12.493Z,86.40
2023-03-11T21:44:19.631Z,86.39
2023-03-11T21:47:54.267Z,86.34
2023-03-11T21:51:31.948Z,86.18
2023-03-11T21:55:09.654Z,86.08
2023-03-11T21:58:49.907Z,86.09
2023-03-11T22:02:44.078Z,86.11
2023-03-11T22:06:22.007Z,86.00
2023-03-11T22:09:40.456Z,85.89
2023-03-11T22:13:19.646Z,86.01
2023-03-11T22:16:56.243Z,86.09
2023-03-11T22:20:33.470Z,86.13
2023-03-11T22:24:11.743Z,86.04
2023-03-11T22:27:49.211Z,86.08
2023-03-11T22:31:26.365Z,85.96
2023-03-11T22:35:04.180Z,86.07
2023-03-11T22:38:44.217Z,86.32
2023-03-11T22:42:21.475Z,86.49
2023-03-11T22:45:57.551Z,86.37
2023-03-11T22:49:34.799Z,86.28
2023-03-11T22:53:13.014Z,86.32
2023-03-11T22:57:10.315Z,86.23
2023-03-11T23:00:27.685Z,86.28
2023-03-11T23:04:25.285Z,86.48
2023-03-11T23:07:43.649Z,86.50
2023-03-11T23:11:21.714Z,86.44
2023-03-11T23:15:18.631Z,86.43
2023-03-11T23:18:37.174Z,86.36
2023-03-11T23:22:13.742Z,86.65
2023-03-11T23:25:51.433Z,86.88
2023-03-11T23:29:29.395Z,86.93
2023-03-11T23:33:07.086Z,86.65
2023-03-11T23:37:05.547Z,86.46
2023-03-11T23:40:22.236Z,86.38
2023-03-11T23:43:59.850Z,86.35
2023-03-11T23:47:56.922Z,86.45
2023-03-11T23:51:15.570Z,86.57
2023-03-11T23:54:53.302Z,86.62
2023-03-11T23:58:32.966Z,86.56
